sensor_id;sensor_type;location;lat;lon;timestamp;P1;durP1;ratioP1;P2;durP2;ratioP2
15486;SDS011;7845;53.698;10.078;2023-07-31T00:00:10;4.00;;;1.40;;
15486;SDS011;7845;53.698;10.078;2023-07-31T00:02:37;3.60;;;1.23;;
15486;SDS011;7845;53.698;10.078;2023-07-31T00:05:02;4.43;;;1.50;;
15486;SDS011;7845;53.698;10.078;2023-07-31T00:07:28;3.83;;;1.67;;
15486;SDS011;7845;53.698;10.078;2023-07-31T00:09:53;3.20;;;1.23;;
15486;SDS011;7845;53.698;10.078;2023-07-31T00:12:19;3.77;;;1.30;;
15486;SDS011;7845;53.698;10.078;2023-07-31T00:14:45;3.33;;;1.23;;
15486;SDS011;7845;53.698;10.078;2023-07-31T00:17:11;3.50;;;1.20;;
15486;SDS011;7845;53.698;10.078;2023-07-31T00:19:36;4.37;;;1.80;;
15486;SDS011;7845;53.698;10.078;2023-07-31T00:22:02;3.77;;;1.40;;
15486;SDS011;7845;53.698;10.078;2023-07-31T00:24:27;3.50;;;1.30;;
15486;SDS011;7845;53.698;10.078;2023-07-31T00:26:52;3.63;;;1.33;;
15486;SDS011;7845;53.698;10.078;2023-07-31T00:29:20;4.33;;;1.57;;
15486;SDS011;7845;53.698;10.078;2023-07-31T00:31:50;3.40;;;1.23;;
15486;SDS011;7845;53.698;10.078;2023-07-31T00:34:15;3.50;;;1.40;;
15486;SDS011;7845;53.698;10.078;2023-07-31T00:36:40;4.00;;;1.50;;
15486;SDS011;7845;53.698;10.078;2023-07-31T00:39:06;3.30;;;1.30;;
15486;SDS011;7845;53.698;10.078;2023-07-31T00:41:31;3.83;;;1.60;;
15486;SDS011;7845;53.698;10.078;2023-07-31T00:43:59;3.80;;;1.30;;
15486;SDS011;7845;53.698;10.078;2023-07-31T00:46:25;3.43;;;1.30;;
15486;SDS011;7845;53.698;10.078;2023-07-31T00:48:50;3.20;;;1.30;;
15486;SDS011;7845;53.698;10.078;2023-07-31T00:51:18;3.30;;;1.20;;
15486;SDS011;7845;53.698;10.078;2023-07-31T00:53:43;3.47;;;1.40;;
15486;SDS011;7845;53.698;10.078;2023-07-31T00:56:08;3.50;;;1.40;;
15486;SDS011;7845;53.698;10.078;2023-07-31T00:58:37;3.73;;;1.30;;
15486;SDS011;7845;53.698;10.078;2023-07-31T01:01:02;4.80;;;1.17;;
15486;SDS011;7845;53.698;10.078;2023-07-31T01:03:28;3.40;;;1.10;;
15486;SDS011;7845;53.698;10.078;2023-07-31T01:05:59;3.30;;;0.80;;
15486;SDS011;7845;53.698;10.078;2023-07-31T01:08:44;3.60;;;1.00;;
15486;SDS011;7845;53.698;10.078;2023-07-31T01:11:19;3.30;;;1.00;;
15486;SDS011;7845;53.698;10.078;2023-07-31T01:13:50;3.70;;;1.10;;
15486;SDS011;7845;53.698;10.078;2023-07-31T01:16:16;3.40;;;1.03;;
15486;SDS011;7845;53.698;10.078;2023-07-31T01:18:41;3.20;;;0.70;;
15486;SDS011;7845;53.698;10.078;2023-07-31T01:21:14;2.97;;;0.70;;
15486;SDS011;7845;53.698;10.078;2023-07-31T01:26:58;3.80;;;1.10;;
15486;SDS011;7845;53.698;10.078;2023-07-31T01:29:37;3.97;;;1.10;;
15486;SDS011;7845;53.698;10.078;2023-07-31T01:32:13;3.77;;;1.53;;
15486;SDS011;7845;53.698;10.078;2023-07-31T01:34:41;4.30;;;1.50;;
15486;SDS011;7845;53.698;10.078;2023-07-31T01:37:07;3.70;;;1.23;;
15486;SDS011;7845;53.698;10.078;2023-07-31T01:39:32;4.07;;;0.90;;
15486;SDS011;7845;53.698;10.078;2023-07-31T01:41:57;3.30;;;1.03;;
15486;SDS011;7845;53.698;10.078;2023-07-31T01:44:23;3.70;;;1.10;;
15486;SDS011;7845;53.698;10.078;2023-07-31T01:46:48;5.20;;;1.77;;
15486;SDS011;7845;53.698;10.078;2023-07-31T01:49:13;3.60;;;1.00;;
15486;SDS011;7845;53.698;10.078;2023-07-31T01:51:39;3.97;;;1.70;;
15486;SDS011;7845;53.698;10.078;2023-07-31T01:54:04;3.87;;;1.47;;
15486;SDS011;7845;53.698;10.078;2023-07-31T01:56:30;4.43;;;1.20;;
15486;SDS011;7845;53.698;10.078;2023-07-31T01:58:55;3.47;;;1.10;;
15486;SDS011;7845;53.698;10.078;2023-07-31T02:01:21;4.83;;;1.30;;
15486;SDS011;7845;53.698;10.078;2023-07-31T02:03:46;4.20;;;1.43;;
15486;SDS011;7845;53.698;10.078;2023-07-31T02:06:12;4.40;;;1.53;;
15486;SDS011;7845;53.698;10.078;2023-07-31T02:08:37;5.73;;;1.80;;
15486;SDS011;7845;53.698;10.078;2023-07-31T02:11:03;4.13;;;1.27;;
15486;SDS011;7845;53.698;10.078;2023-07-31T02:13:28;4.37;;;1.27;;
15486;SDS011;7845;53.698;10.078;2023-07-31T02:15:53;3.60;;;1.30;;
15486;SDS011;7845;53.698;10.078;2023-07-31T02:18:19;5.30;;;1.43;;
15486;SDS011;7845;53.698;10.078;2023-07-31T02:20:48;4.23;;;1.17;;
15486;SDS011;7845;53.698;10.078;2023-07-31T02:23:14;4.83;;;1.37;;
15486;SDS011;7845;53.698;10.078;2023-07-31T02:25:40;3.20;;;1.03;;
15486;SDS011;7845;53.698;10.078;2023-07-31T02:28:05;4.80;;;1.40;;
15486;SDS011;7845;53.698;10.078;2023-07-31T02:30:30;4.90;;;1.33;;
15486;SDS011;7845;53.698;10.078;2023-07-31T02:32:55;4.40;;;1.20;;
15486;SDS011;7845;53.698;10.078;2023-07-31T02:35:21;3.50;;;1.20;;
15486;SDS011;7845;53.698;10.078;2023-07-31T02:37:46;3.83;;;1.10;;
15486;SDS011;7845;53.698;10.078;2023-07-31T02:40:11;5.07;;;1.40;;
15486;SDS011;7845;53.698;10.078;2023-07-31T02:42:37;4.80;;;1.70;;
15486;SDS011;7845;53.698;10.078;2023-07-31T02:45:02;3.90;;;1.20;;
15486;SDS011;7845;53.698;10.078;2023-07-31T02:47:28;4.33;;;1.40;;
15486;SDS011;7845;53.698;10.078;2023-07-31T02:49:53;4.83;;;1.60;;
15486;SDS011;7845;53.698;10.078;2023-07-31T02:52:19;5.07;;;2.13;;
15486;SDS011;7845;53.698;10.078;2023-07-31T02:54:45;5.10;;;1.30;;
15486;SDS011;7845;53.698;10.078;2023-07-31T02:57:10;3.57;;;1.10;;
15486;SDS011;7845;53.698;10.078;2023-07-31T02:59:35;4.17;;;1.37;;
15486;SDS011;7845;53.698;10.078;2023-07-31T03:02:01;4.73;;;1.50;;
15486;SDS011;7845;53.698;10.078;2023-07-31T03:04:26;5.73;;;1.50;;
15486;SDS011;7845;53.698;10.078;2023-07-31T03:06:51;4.00;;;1.67;;
15486;SDS011;7845;53.698;10.078;2023-07-31T03:09:17;3.60;;;1.20;;
15486;SDS011;7845;53.698;10.078;2023-07-31T03:11:42;5.20;;;1.40;;
15486;SDS011;7845;53.698;10.078;2023-07-31T03:14:07;4.23;;;1.30;;
15486;SDS011;7845;53.698;10.078;2023-07-31T03:16:34;4.00;;;1.00;;
15486;SDS011;7845;53.698;10.078;2023-07-31T03:18:59;4.87;;;1.93;;
15486;SDS011;7845;53.698;10.078;2023-07-31T03:21:25;3.20;;;1.00;;
15486;SDS011;7845;53.698;10.078;2023-07-31T03:23:50;3.70;;;1.10;;
15486;SDS011;7845;53.698;10.078;2023-07-31T03:26:15;3.60;;;1.30;;
15486;SDS011;7845;53.698;10.078;2023-07-31T03:28:41;4.07;;;1.47;;
15486;SDS011;7845;53.698;10.078;2023-07-31T03:31:06;4.97;;;1.30;;
15486;SDS011;7845;53.698;10.078;2023-07-31T03:33:33;3.90;;;1.23;;
15486;SDS011;7845;53.698;10.078;2023-07-31T03:35:58;3.90;;;1.30;;
15486;SDS011;7845;53.698;10.078;2023-07-31T03:38:24;5.33;;;1.40;;
15486;SDS011;7845;53.698;10.078;2023-07-31T03:40:49;3.00;;;0.80;;
15486;SDS011;7845;53.698;10.078;2023-07-31T03:43:15;3.67;;;1.40;;
15486;SDS011;7845;53.698;10.078;2023-07-31T03:45:40;4.37;;;1.23;;
15486;SDS011;7845;53.698;10.078;2023-07-31T03:48:06;3.60;;;1.17;;
15486;SDS011;7845;53.698;10.078;2023-07-31T03:50:32;3.57;;;1.33;;
15486;SDS011;7845;53.698;10.078;2023-07-31T03:52:58;5.03;;;1.10;;
15486;SDS011;7845;53.698;10.078;2023-07-31T03:55:23;4.90;;;1.23;;
15486;SDS011;7845;53.698;10.078;2023-07-31T03:57:48;4.43;;;1.20;;
15486;SDS011;7845;53.698;10.078;2023-07-31T04:00:14;3.50;;;1.00;;
15486;SDS011;7845;53.698;10.078;2023-07-31T04:02:41;4.20;;;1.10;;
15486;SDS011;7845;53.698;10.078;2023-07-31T04:05:07;4.57;;;1.80;;
15486;SDS011;7845;53.698;10.078;2023-07-31T04:07:32;4.40;;;1.40;;
15486;SDS011;7845;53.698;10.078;2023-07-31T04:09:58;5.37;;;1.23;;
15486;SDS011;7845;53.698;10.078;2023-07-31T04:12:23;3.30;;;1.03;;
15486;SDS011;7845;53.698;10.078;2023-07-31T04:14:49;4.93;;;1.53;;
15486;SDS011;7845;53.698;10.078;2023-07-31T04:17:15;4.10;;;1.10;;
15486;SDS011;7845;53.698;10.078;2023-07-31T04:19:40;5.97;;;1.20;;
15486;SDS011;7845;53.698;10.078;2023-07-31T04:22:05;4.50;;;1.30;;
15486;SDS011;7845;53.698;10.078;2023-07-31T04:24:30;3.93;;;1.50;;
15486;SDS011;7845;53.698;10.078;2023-07-31T04:26:56;4.93;;;1.50;;
15486;SDS011;7845;53.698;10.078;2023-07-31T04:29:21;4.83;;;1.50;;
15486;SDS011;7845;53.698;10.078;2023-07-31T04:31:50;4.43;;;1.30;;
15486;SDS011;7845;53.698;10.078;2023-07-31T04:34:17;6.43;;;1.33;;
15486;SDS011;7845;53.698;10.078;2023-07-31T04:36:44;4.13;;;1.80;;
15486;SDS011;7845;53.698;10.078;2023-07-31T04:39:11;6.07;;;1.90;;
15486;SDS011;7845;53.698;10.078;2023-07-31T04:41:52;3.70;;;1.30;;
15486;SDS011;7845;53.698;10.078;2023-07-31T04:44:27;4.40;;;1.50;;
15486;SDS011;7845;53.698;10.078;2023-07-31T04:46:54;3.60;;;1.20;;
15486;SDS011;7845;53.698;10.078;2023-07-31T04:49:21;3.20;;;1.13;;
15486;SDS011;7845;53.698;10.078;2023-07-31T04:54:29;3.57;;;1.03;;
15486;SDS011;7845;53.698;10.078;2023-07-31T04:56:56;4.87;;;1.40;;
15486;SDS011;7845;53.698;10.078;2023-07-31T04:59:21;4.10;;;1.33;;
15486;SDS011;7845;53.698;10.078;2023-07-31T05:01:50;3.23;;;1.17;;
15486;SDS011;7845;53.698;10.078;2023-07-31T05:04:15;3.27;;;1.07;;
15486;SDS011;7845;53.698;10.078;2023-07-31T05:06:41;3.30;;;1.00;;
15486;SDS011;7845;53.698;10.078;2023-07-31T05:09:08;3.60;;;1.20;;
15486;SDS011;7845;53.698;10.078;2023-07-31T05:11:40;5.37;;;1.70;;
15486;SDS011;7845;53.698;10.078;2023-07-31T05:14:07;3.43;;;1.00;;
15486;SDS011;7845;53.698;10.078;2023-07-31T05:16:34;3.07;;;0.93;;
15486;SDS011;7845;53.698;10.078;2023-07-31T05:19:00;3.63;;;1.20;;
15486;SDS011;7845;53.698;10.078;2023-07-31T05:21:43;4.00;;;1.10;;
15486;SDS011;7845;53.698;10.078;2023-07-31T05:24:09;4.50;;;1.33;;
15486;SDS011;7845;53.698;10.078;2023-07-31T05:26:49;3.47;;;1.20;;
15486;SDS011;7845;53.698;10.078;2023-07-31T05:29:32;5.03;;;1.97;;
15486;SDS011;7845;53.698;10.078;2023-07-31T05:32:00;3.13;;;1.00;;
15486;SDS011;7845;53.698;10.078;2023-07-31T05:34:25;3.20;;;0.90;;
15486;SDS011;7845;53.698;10.078;2023-07-31T05:36:50;3.10;;;0.97;;
15486;SDS011;7845;53.698;10.078;2023-07-31T05:39:17;3.00;;;0.80;;
15486;SDS011;7845;53.698;10.078;2023-07-31T05:41:44;2.83;;;0.70;;
15486;SDS011;7845;53.698;10.078;2023-07-31T05:44:23;3.00;;;0.80;;
15486;SDS011;7845;53.698;10.078;2023-07-31T05:47:09;3.00;;;0.93;;
15486;SDS011;7845;53.698;10.078;2023-07-31T05:49:34;3.23;;;0.80;;
15486;SDS011;7845;53.698;10.078;2023-07-31T05:52:04;3.03;;;0.70;;
15486;SDS011;7845;53.698;10.078;2023-07-31T05:54:29;3.53;;;0.70;;
15486;SDS011;7845;53.698;10.078;2023-07-31T05:56:55;3.80;;;0.90;;
15486;SDS011;7845;53.698;10.078;2023-07-31T05:59:20;3.70;;;1.20;;
15486;SDS011;7845;53.698;10.078;2023-07-31T06:01:46;3.07;;;0.90;;
15486;SDS011;7845;53.698;10.078;2023-07-31T06:04:11;3.30;;;0.80;;
15486;SDS011;7845;53.698;10.078;2023-07-31T06:06:36;3.30;;;0.90;;
15486;SDS011;7845;53.698;10.078;2023-07-31T06:09:02;3.30;;;0.90;;
15486;SDS011;7845;53.698;10.078;2023-07-31T06:11:28;2.80;;;0.70;;
15486;SDS011;7845;53.698;10.078;2023-07-31T06:13:54;3.10;;;0.70;;
15486;SDS011;7845;53.698;10.078;2023-07-31T06:16:19;4.17;;;0.90;;
15486;SDS011;7845;53.698;10.078;2023-07-31T06:18:46;3.47;;;1.10;;
15486;SDS011;7845;53.698;10.078;2023-07-31T06:21:12;2.97;;;0.80;;
15486;SDS011;7845;53.698;10.078;2023-07-31T06:23:37;4.03;;;1.37;;
15486;SDS011;7845;53.698;10.078;2023-07-31T06:26:02;3.53;;;0.93;;
15486;SDS011;7845;53.698;10.078;2023-07-31T06:28:28;2.90;;;0.90;;
15486;SDS011;7845;53.698;10.078;2023-07-31T06:30:54;3.57;;;0.90;;
15486;SDS011;7845;53.698;10.078;2023-07-31T06:33:19;3.30;;;1.00;;
15486;SDS011;7845;53.698;10.078;2023-07-31T06:35:45;2.83;;;0.73;;
15486;SDS011;7845;53.698;10.078;2023-07-31T06:38:10;2.80;;;0.70;;
15486;SDS011;7845;53.698;10.078;2023-07-31T06:40:36;3.00;;;0.80;;
15486;SDS011;7845;53.698;10.078;2023-07-31T06:43:01;3.37;;;1.07;;
15486;SDS011;7845;53.698;10.078;2023-07-31T06:45:33;5.00;;;0.80;;
15486;SDS011;7845;53.698;10.078;2023-07-31T06:47:59;2.97;;;0.83;;
15486;SDS011;7845;53.698;10.078;2023-07-31T06:50:26;3.00;;;0.70;;
15486;SDS011;7845;53.698;10.078;2023-07-31T06:52:52;3.30;;;0.80;;
15486;SDS011;7845;53.698;10.078;2023-07-31T06:55:18;3.00;;;0.87;;
15486;SDS011;7845;53.698;10.078;2023-07-31T06:57:45;2.80;;;0.60;;
15486;SDS011;7845;53.698;10.078;2023-07-31T07:00:11;3.00;;;0.87;;
15486;SDS011;7845;53.698;10.078;2023-07-31T07:02:37;3.70;;;0.90;;
15486;SDS011;7845;53.698;10.078;2023-07-31T07:05:02;3.10;;;0.93;;
15486;SDS011;7845;53.698;10.078;2023-07-31T07:07:28;2.87;;;0.80;;
15486;SDS011;7845;53.698;10.078;2023-07-31T07:10:13;3.10;;;0.80;;
15486;SDS011;7845;53.698;10.078;2023-07-31T07:12:58;3.60;;;0.90;;
15486;SDS011;7845;53.698;10.078;2023-07-31T07:15:49;2.90;;;0.80;;
15486;SDS011;7845;53.698;10.078;2023-07-31T07:18:35;3.00;;;0.80;;
15486;SDS011;7845;53.698;10.078;2023-07-31T07:21:21;4.17;;;1.07;;
15486;SDS011;7845;53.698;10.078;2023-07-31T07:24:07;2.83;;;0.63;;
15486;SDS011;7845;53.698;10.078;2023-07-31T07:26:52;3.20;;;0.80;;
15486;SDS011;7845;53.698;10.078;2023-07-31T07:29:38;2.80;;;0.60;;
15486;SDS011;7845;53.698;10.078;2023-07-31T07:32:24;3.20;;;0.83;;
15486;SDS011;7845;53.698;10.078;2023-07-31T07:35:11;3.00;;;0.83;;
15486;SDS011;7845;53.698;10.078;2023-07-31T07:37:57;2.90;;;0.63;;
15486;SDS011;7845;53.698;10.078;2023-07-31T07:40:43;2.90;;;0.90;;
15486;SDS011;7845;53.698;10.078;2023-07-31T07:43:29;3.10;;;0.90;;
15486;SDS011;7845;53.698;10.078;2023-07-31T07:46:14;2.80;;;0.70;;
15486;SDS011;7845;53.698;10.078;2023-07-31T07:49:00;3.00;;;0.70;;
15486;SDS011;7845;53.698;10.078;2023-07-31T07:51:46;2.80;;;0.70;;
15486;SDS011;7845;53.698;10.078;2023-07-31T07:54:33;2.90;;;0.60;;
15486;SDS011;7845;53.698;10.078;2023-07-31T07:57:19;2.80;;;0.60;;
15486;SDS011;7845;53.698;10.078;2023-07-31T08:00:05;2.70;;;0.50;;
15486;SDS011;7845;53.698;10.078;2023-07-31T08:02:51;3.20;;;0.70;;
15486;SDS011;7845;53.698;10.078;2023-07-31T08:05:37;3.30;;;0.67;;
15486;SDS011;7845;53.698;10.078;2023-07-31T08:08:23;2.90;;;0.60;;
15486;SDS011;7845;53.698;10.078;2023-07-31T08:11:08;2.90;;;0.70;;
15486;SDS011;7845;53.698;10.078;2023-07-31T08:13:54;3.00;;;0.60;;
15486;SDS011;7845;53.698;10.078;2023-07-31T08:16:39;2.80;;;0.57;;
15486;SDS011;7845;53.698;10.078;2023-07-31T08:19:25;2.97;;;0.60;;
15486;SDS011;7845;53.698;10.078;2023-07-31T08:22:11;2.97;;;0.73;;
15486;SDS011;7845;53.698;10.078;2023-07-31T08:24:56;2.77;;;0.70;;
15486;SDS011;7845;53.698;10.078;2023-07-31T08:27:43;2.70;;;0.50;;
15486;SDS011;7845;53.698;10.078;2023-07-31T08:30:29;2.80;;;0.70;;
15486;SDS011;7845;53.698;10.078;2023-07-31T08:33:15;2.90;;;0.60;;
15486;SDS011;7845;53.698;10.078;2023-07-31T08:36:01;3.00;;;0.70;;
15486;SDS011;7845;53.698;10.078;2023-07-31T08:38:47;2.70;;;0.60;;
15486;SDS011;7845;53.698;10.078;2023-07-31T08:41:39;2.80;;;0.70;;
15486;SDS011;7845;53.698;10.078;2023-07-31T08:44:25;2.80;;;0.70;;
15486;SDS011;7845;53.698;10.078;2023-07-31T08:47:10;2.80;;;0.50;;
15486;SDS011;7845;53.698;10.078;2023-07-31T08:49:57;3.03;;;0.50;;
15486;SDS011;7845;53.698;10.078;2023-07-31T08:52:45;2.87;;;0.60;;
15486;SDS011;7845;53.698;10.078;2023-07-31T08:55:32;2.87;;;0.70;;
15486;SDS011;7845;53.698;10.078;2023-07-31T08:58:18;3.10;;;0.70;;
15486;SDS011;7845;53.698;10.078;2023-07-31T09:01:04;2.80;;;0.53;;
15486;SDS011;7845;53.698;10.078;2023-07-31T09:03:51;3.10;;;0.80;;
15486;SDS011;7845;53.698;10.078;2023-07-31T09:06:38;2.80;;;0.63;;
15486;SDS011;7845;53.698;10.078;2023-07-31T09:09:25;3.17;;;0.80;;
15486;SDS011;7845;53.698;10.078;2023-07-31T09:12:11;2.80;;;0.63;;
15486;SDS011;7845;53.698;10.078;2023-07-31T09:14:57;2.77;;;0.43;;
15486;SDS011;7845;53.698;10.078;2023-07-31T09:17:43;2.80;;;0.60;;
15486;SDS011;7845;53.698;10.078;2023-07-31T09:20:29;2.80;;;0.60;;
15486;SDS011;7845;53.698;10.078;2023-07-31T09:23:15;3.10;;;0.70;;
15486;SDS011;7845;53.698;10.078;2023-07-31T09:26:01;2.90;;;0.50;;
15486;SDS011;7845;53.698;10.078;2023-07-31T09:28:47;2.90;;;0.60;;
15486;SDS011;7845;53.698;10.078;2023-07-31T09:31:40;2.90;;;0.50;;
15486;SDS011;7845;53.698;10.078;2023-07-31T09:34:31;2.90;;;0.60;;
15486;SDS011;7845;53.698;10.078;2023-07-31T09:37:24;2.83;;;0.50;;
15486;SDS011;7845;53.698;10.078;2023-07-31T09:40:10;3.10;;;0.40;;
15486;SDS011;7845;53.698;10.078;2023-07-31T09:43:11;3.00;;;0.67;;
15486;SDS011;7845;53.698;10.078;2023-07-31T09:45:58;3.00;;;0.60;;
15486;SDS011;7845;53.698;10.078;2023-07-31T09:48:43;3.10;;;0.50;;
15486;SDS011;7845;53.698;10.078;2023-07-31T09:51:29;2.90;;;0.40;;
15486;SDS011;7845;53.698;10.078;2023-07-31T09:54:16;2.70;;;0.33;;
15486;SDS011;7845;53.698;10.078;2023-07-31T09:57:02;2.70;;;0.47;;
15486;SDS011;7845;53.698;10.078;2023-07-31T09:59:48;2.70;;;0.40;;
15486;SDS011;7845;53.698;10.078;2023-07-31T10:02:35;2.77;;;0.50;;
15486;SDS011;7845;53.698;10.078;2023-07-31T10:05:22;3.00;;;0.50;;
15486;SDS011;7845;53.698;10.078;2023-07-31T10:08:09;2.80;;;0.40;;
15486;SDS011;7845;53.698;10.078;2023-07-31T10:10:55;2.80;;;0.43;;
15486;SDS011;7845;53.698;10.078;2023-07-31T10:13:44;3.10;;;0.73;;
15486;SDS011;7845;53.698;10.078;2023-07-31T10:16:31;2.60;;;0.40;;
15486;SDS011;7845;53.698;10.078;2023-07-31T10:19:18;3.00;;;0.60;;
15486;SDS011;7845;53.698;10.078;2023-07-31T10:22:05;3.27;;;0.50;;
15486;SDS011;7845;53.698;10.078;2023-07-31T10:24:52;3.10;;;0.60;;
15486;SDS011;7845;53.698;10.078;2023-07-31T10:27:38;2.90;;;0.57;;
15486;SDS011;7845;53.698;10.078;2023-07-31T10:30:25;2.90;;;0.50;;
15486;SDS011;7845;53.698;10.078;2023-07-31T10:33:14;2.80;;;0.40;;
15486;SDS011;7845;53.698;10.078;2023-07-31T10:36:13;2.90;;;0.50;;
15486;SDS011;7845;53.698;10.078;2023-07-31T10:39:03;2.90;;;0.50;;
15486;SDS011;7845;53.698;10.078;2023-07-31T10:41:49;2.80;;;0.50;;
15486;SDS011;7845;53.698;10.078;2023-07-31T10:44:35;3.00;;;0.57;;
15486;SDS011;7845;53.698;10.078;2023-07-31T10:47:21;2.70;;;0.50;;
15486;SDS011;7845;53.698;10.078;2023-07-31T10:50:15;2.93;;;0.50;;
15486;SDS011;7845;53.698;10.078;2023-07-31T10:53:03;2.80;;;0.50;;
15486;SDS011;7845;53.698;10.078;2023-07-31T10:55:49;3.00;;;0.50;;
15486;SDS011;7845;53.698;10.078;2023-07-31T10:58:38;2.80;;;0.40;;
15486;SDS011;7845;53.698;10.078;2023-07-31T11:01:23;2.80;;;0.40;;
15486;SDS011;7845;53.698;10.078;2023-07-31T11:05:05;3.00;;;0.60;;
15486;SDS011;7845;53.698;10.078;2023-07-31T11:07:51;3.10;;;0.40;;
15486;SDS011;7845;53.698;10.078;2023-07-31T11:10:36;3.00;;;0.57;;
15486;SDS011;7845;53.698;10.078;2023-07-31T11:13:22;2.80;;;0.40;;
15486;SDS011;7845;53.698;10.078;2023-07-31T11:16:10;2.60;;;0.30;;
15486;SDS011;7845;53.698;10.078;2023-07-31T11:18:58;2.70;;;0.40;;
15486;SDS011;7845;53.698;10.078;2023-07-31T11:21:43;2.80;;;0.50;;
15486;SDS011;7845;53.698;10.078;2023-07-31T11:24:29;3.13;;;0.40;;
15486;SDS011;7845;53.698;10.078;2023-07-31T11:27:15;2.60;;;0.40;;
15486;SDS011;7845;53.698;10.078;2023-07-31T11:30:01;2.80;;;0.40;;
15486;SDS011;7845;53.698;10.078;2023-07-31T11:32:47;2.80;;;0.30;;
15486;SDS011;7845;53.698;10.078;2023-07-31T11:35:35;2.80;;;0.40;;
15486;SDS011;7845;53.698;10.078;2023-07-31T11:41:13;2.80;;;0.33;;
15486;SDS011;7845;53.698;10.078;2023-07-31T11:44:02;2.70;;;0.30;;
15486;SDS011;7845;53.698;10.078;2023-07-31T11:46:48;2.60;;;0.30;;
15486;SDS011;7845;53.698;10.078;2023-07-31T11:49:33;2.60;;;0.30;;
15486;SDS011;7845;53.698;10.078;2023-07-31T11:52:22;3.10;;;0.30;;
15486;SDS011;7845;53.698;10.078;2023-07-31T11:55:09;2.60;;;0.30;;
15486;SDS011;7845;53.698;10.078;2023-07-31T11:57:56;3.00;;;0.43;;
15486;SDS011;7845;53.698;10.078;2023-07-31T12:00:43;4.03;;;0.40;;
15486;SDS011;7845;53.698;10.078;2023-07-31T12:03:30;2.77;;;0.43;;
15486;SDS011;7845;53.698;10.078;2023-07-31T12:06:17;2.70;;;0.40;;
15486;SDS011;7845;53.698;10.078;2023-07-31T12:09:03;2.67;;;0.40;;
15486;SDS011;7845;53.698;10.078;2023-07-31T12:11:50;2.70;;;0.40;;
15486;SDS011;7845;53.698;10.078;2023-07-31T12:14:35;2.67;;;0.40;;
15486;SDS011;7845;53.698;10.078;2023-07-31T12:17:27;2.70;;;0.30;;
15486;SDS011;7845;53.698;10.078;2023-07-31T12:20:13;3.20;;;0.50;;
15486;SDS011;7845;53.698;10.078;2023-07-31T12:22:59;3.93;;;0.50;;
15486;SDS011;7845;53.698;10.078;2023-07-31T12:25:44;2.90;;;0.50;;
15486;SDS011;7845;53.698;10.078;2023-07-31T12:28:30;2.60;;;0.30;;
15486;SDS011;7845;53.698;10.078;2023-07-31T12:31:22;2.50;;;0.30;;
15486;SDS011;7845;53.698;10.078;2023-07-31T12:34:18;2.90;;;0.60;;
15486;SDS011;7845;53.698;10.078;2023-07-31T12:37:06;3.00;;;0.40;;
15486;SDS011;7845;53.698;10.078;2023-07-31T12:39:51;4.20;;;0.50;;
15486;SDS011;7845;53.698;10.078;2023-07-31T12:42:38;2.80;;;0.40;;
15486;SDS011;7845;53.698;10.078;2023-07-31T12:45:24;2.70;;;0.40;;
15486;SDS011;7845;53.698;10.078;2023-07-31T12:48:09;2.80;;;0.47;;
15486;SDS011;7845;53.698;10.078;2023-07-31T12:50:55;3.73;;;0.60;;
15486;SDS011;7845;53.698;10.078;2023-07-31T12:53:40;2.90;;;0.50;;
15486;SDS011;7845;53.698;10.078;2023-07-31T12:56:26;2.83;;;0.50;;
15486;SDS011;7845;53.698;10.078;2023-07-31T12:59:12;3.00;;;0.50;;
15486;SDS011;7845;53.698;10.078;2023-07-31T13:01:58;2.70;;;0.40;;
15486;SDS011;7845;53.698;10.078;2023-07-31T13:04:43;3.00;;;0.50;;
15486;SDS011;7845;53.698;10.078;2023-07-31T13:07:29;2.70;;;0.50;;
15486;SDS011;7845;53.698;10.078;2023-07-31T13:10:15;2.63;;;0.30;;
15486;SDS011;7845;53.698;10.078;2023-07-31T13:13:00;2.80;;;0.40;;
15486;SDS011;7845;53.698;10.078;2023-07-31T13:15:46;2.90;;;0.40;;
15486;SDS011;7845;53.698;10.078;2023-07-31T13:18:31;2.70;;;0.50;;
15486;SDS011;7845;53.698;10.078;2023-07-31T13:21:17;2.90;;;0.47;;
15486;SDS011;7845;53.698;10.078;2023-07-31T13:24:03;2.70;;;0.50;;
15486;SDS011;7845;53.698;10.078;2023-07-31T13:26:49;2.90;;;0.43;;
15486;SDS011;7845;53.698;10.078;2023-07-31T13:29:35;2.70;;;0.50;;
15486;SDS011;7845;53.698;10.078;2023-07-31T13:32:21;2.73;;;0.50;;
15486;SDS011;7845;53.698;10.078;2023-07-31T13:35:07;3.00;;;0.40;;
15486;SDS011;7845;53.698;10.078;2023-07-31T13:37:53;2.70;;;0.40;;
15486;SDS011;7845;53.698;10.078;2023-07-31T13:40:39;3.47;;;0.40;;
15486;SDS011;7845;53.698;10.078;2023-07-31T13:43:25;2.87;;;0.40;;
15486;SDS011;7845;53.698;10.078;2023-07-31T13:46:11;2.70;;;0.60;;
15486;SDS011;7845;53.698;10.078;2023-07-31T13:48:56;2.60;;;0.40;;
15486;SDS011;7845;53.698;10.078;2023-07-31T13:51:42;3.00;;;0.50;;
15486;SDS011;7845;53.698;10.078;2023-07-31T13:54:28;2.80;;;0.63;;
15486;SDS011;7845;53.698;10.078;2023-07-31T13:57:14;2.80;;;0.50;;
15486;SDS011;7845;53.698;10.078;2023-07-31T13:59:59;3.57;;;0.50;;
15486;SDS011;7845;53.698;10.078;2023-07-31T14:02:45;2.90;;;0.57;;
15486;SDS011;7845;53.698;10.078;2023-07-31T14:05:30;3.00;;;0.63;;
15486;SDS011;7845;53.698;10.078;2023-07-31T14:08:16;2.90;;;0.57;;
15486;SDS011;7845;53.698;10.078;2023-07-31T14:11:02;3.00;;;0.70;;
15486;SDS011;7845;53.698;10.078;2023-07-31T14:13:47;3.20;;;0.70;;
15486;SDS011;7845;53.698;10.078;2023-07-31T14:16:33;3.00;;;0.67;;
15486;SDS011;7845;53.698;10.078;2023-07-31T14:19:19;2.70;;;0.47;;
15486;SDS011;7845;53.698;10.078;2023-07-31T14:22:04;2.90;;;0.60;;
15486;SDS011;7845;53.698;10.078;2023-07-31T14:24:51;3.27;;;0.60;;
15486;SDS011;7845;53.698;10.078;2023-07-31T14:27:37;2.80;;;0.40;;
15486;SDS011;7845;53.698;10.078;2023-07-31T14:30:22;2.70;;;0.50;;
15486;SDS011;7845;53.698;10.078;2023-07-31T14:33:08;3.07;;;0.60;;
15486;SDS011;7845;53.698;10.078;2023-07-31T14:35:54;4.07;;;0.70;;
15486;SDS011;7845;53.698;10.078;2023-07-31T14:38:39;2.90;;;0.50;;
15486;SDS011;7845;53.698;10.078;2023-07-31T14:41:25;2.83;;;0.50;;
15486;SDS011;7845;53.698;10.078;2023-07-31T14:44:11;2.77;;;0.53;;
15486;SDS011;7845;53.698;10.078;2023-07-31T14:46:56;2.67;;;0.40;;
15486;SDS011;7845;53.698;10.078;2023-07-31T14:49:42;3.60;;;0.80;;
15486;SDS011;7845;53.698;10.078;2023-07-31T14:52:27;2.53;;;0.40;;
15486;SDS011;7845;53.698;10.078;2023-07-31T14:55:13;2.60;;;0.43;;
15486;SDS011;7845;53.698;10.078;2023-07-31T14:57:59;2.60;;;0.40;;
15486;SDS011;7845;53.698;10.078;2023-07-31T15:00:45;2.70;;;0.40;;
15486;SDS011;7845;53.698;10.078;2023-07-31T15:03:30;2.97;;;0.57;;
15486;SDS011;7845;53.698;10.078;2023-07-31T15:06:16;2.70;;;0.50;;
15486;SDS011;7845;53.698;10.078;2023-07-31T15:09:02;2.90;;;0.50;;
15486;SDS011;7845;53.698;10.078;2023-07-31T15:11:48;2.80;;;0.40;;
15486;SDS011;7845;53.698;10.078;2023-07-31T15:14:33;2.93;;;0.50;;
15486;SDS011;7845;53.698;10.078;2023-07-31T15:17:19;2.57;;;0.40;;
15486;SDS011;7845;53.698;10.078;2023-07-31T15:20:05;2.70;;;0.50;;
15486;SDS011;7845;53.698;10.078;2023-07-31T15:22:51;2.60;;;0.47;;
15486;SDS011;7845;53.698;10.078;2023-07-31T15:25:37;2.60;;;0.50;;
15486;SDS011;7845;53.698;10.078;2023-07-31T15:28:23;2.90;;;0.40;;
15486;SDS011;7845;53.698;10.078;2023-07-31T15:31:08;2.63;;;0.40;;
15486;SDS011;7845;53.698;10.078;2023-07-31T15:33:54;2.60;;;0.50;;
15486;SDS011;7845;53.698;10.078;2023-07-31T15:36:40;2.60;;;0.40;;
15486;SDS011;7845;53.698;10.078;2023-07-31T15:39:26;2.70;;;0.43;;
15486;SDS011;7845;53.698;10.078;2023-07-31T15:42:11;2.97;;;0.47;;
15486;SDS011;7845;53.698;10.078;2023-07-31T15:44:57;2.90;;;0.50;;
15486;SDS011;7845;53.698;10.078;2023-07-31T15:47:43;2.80;;;0.67;;
15486;SDS011;7845;53.698;10.078;2023-07-31T15:50:28;2.60;;;0.40;;
15486;SDS011;7845;53.698;10.078;2023-07-31T15:53:14;2.63;;;0.50;;
15486;SDS011;7845;53.698;10.078;2023-07-31T15:55:59;5.37;;;0.40;;